GMFM

Bassatine Airport

Meknes, Morocco
METAR GMFM 140100Z 25006KT 6000 FEW013 BKN016 09/09 Q1024 NOSIG
Observed Flight Rules
Dec-14 @ 01:00 UTC (21 minutes ago) Marginal Visual Flight Rules
Wind Visibility Clouds
250° at 6 knots 6,003 meters
  • Few at 1,300' AGL
  • Broken at 1,600' AGL
Temperatures Readings
Current 9°C / 48°F
Dewpoint 9°C / 48°F
Humidity 100%
Altimeter 30.24" Hg
Pressure 1024 hPa
Elevation 549
METAR GMFM 140100Z 25006KT 6000 FEW013 BKN016 09/09 Q1024 NOSIG
Observed Flight Rules
Dec-14 @ 01:00 UTC
(21 minutes ago)
MVFR
Wind Visibility
250° at 6 knots 6,003 meters
Clouds
  • Few at 1,300' AGL
  • Broken at 1,600' AGL
Temperature Dewpoint
9°C / 48°F 9°C / 48°F
Humidity Altimeter Pressure
100% 30.24" Hg 1024 hPa